Time;durP1;ratioP1;P1;durP2;ratioP2;P2;SDS_P1;SDS_P2;PMS_P1;PMS_P2;Temp;Humidity;BMP_temperature;BMP_pressure;BME280_temperature;BME280_humidity;BME280_pressure;Samples;Min_cycle;Max_cycle;Signal;HPM_P1;HPM_P2
2021/09/07 00:02:04;;;;;;;0.40;0.20;;;;;;;13.77;60.24;101378.30;111959;1202;137523;-77
2021/09/07 00:04:31;;;;;;;0.40;0.20;;;;;;;13.73;60.32;101374.13;112066;1202;94594;-77
2021/09/07 00:06:58;;;;;;;0.40;0.20;;;;;;;13.79;60.07;101376.65;112085;1202;93953;-76
2021/09/07 00:09:25;;;;;;;0.40;0.20;;;;;;;13.78;60.19;101372.73;111960;1202;137534;-77
2021/09/07 00:11:52;;;;;;;0.40;0.20;;;;;;;13.77;60.16;101370.80;111997;1209;94491;-80
2021/09/07 00:14:19;;;;;;;0.40;0.20;;;;;;;13.80;60.32;101372.71;112015;1202;136275;-77
2021/09/07 00:16:47;;;;;;;0.40;0.20;;;;;;;13.77;60.05;101367.61;111971;1202;93897;-76
2021/09/07 00:19:14;;;;;;;0.40;0.20;;;;;;;13.77;59.83;101364.19;112068;1202;93865;-78
2021/09/07 00:21:50;;;;;;;0.40;0.20;;;;;;;13.81;60.08;101362.15;111899;1202;137379;-78
2021/09/07 00:24:19;;;;;;;0.40;0.20;;;;;;;13.78;59.70;101357.77;112001;1202;94415;-77
2021/09/07 00:26:46;;;;;;;0.40;0.20;;;;;;;13.76;59.67;101357.44;111898;1202;139042;-76
2021/09/07 00:29:13;;;;;;;0.40;0.20;;;;;;;13.77;59.70;101357.98;112027;1203;93875;-77
2021/09/07 00:31:39;;;;;;;0.40;0.20;;;;;;;13.75;59.70;101357.11;111888;1209;137739;-77
2021/09/07 00:34:06;;;;;;;0.40;0.20;;;;;;;13.75;59.58;101357.30;112033;1208;94029;-77
2021/09/07 00:36:33;;;;;;;0.40;0.20;;;;;;;13.76;59.46;101356.02;112076;1202;94444;-75
2021/09/07 00:38:59;;;;;;;0.40;0.20;;;;;;;13.80;59.44;101352.54;111963;1202;137926;-77
2021/09/07 00:41:26;;;;;;;0.40;0.20;;;;;;;13.67;59.57;101348.73;112043;1202;108679;-76
2021/09/07 00:43:53;;;;;;;0.40;0.20;;;;;;;13.51;59.84;101353.21;111965;1202;137982;-78
2021/09/07 00:46:19;;;;;;;0.40;0.20;;;;;;;13.40;59.80;101350.08;112077;1203;93874;-79
2021/09/07 00:48:46;;;;;;;0.40;0.20;;;;;;;13.38;60.15;101345.66;112035;1202;93905;-77
2021/09/07 00:51:13;;;;;;;0.40;0.20;;;;;;;13.35;60.29;101345.70;111927;1202;138516;-76
2021/09/07 00:53:40;;;;;;;0.40;0.30;;;;;;;13.22;60.64;101348.48;112099;1202;94640;-79
2021/09/07 00:56:08;;;;;;;0.40;0.30;;;;;;;13.14;60.84;101340.63;111897;1202;138167;-81
2021/09/07 00:58:37;;;;;;;0.40;0.20;;;;;;;13.11;60.99;101335.53;112092;1202;95702;-78
2021/09/07 01:01:03;;;;;;;0.40;0.20;;;;;;;13.03;61.24;101336.94;111976;1209;108695;-75
2021/09/07 01:03:30;;;;;;;0.40;0.30;;;;;;;12.92;61.43;101337.36;112147;1199;137357;-72
2021/09/07 01:05:57;;;;;;;0.40;0.30;;;;;;;12.87;61.72;101338.89;112166;1200;93887;-71
2021/09/07 01:08:23;;;;;;;0.40;0.20;;;;;;;12.85;61.78;101336.95;112096;1199;138611;-71
2021/09/07 01:10:50;;;;;;;0.40;0.20;;;;;;;12.86;61.87;101330.34;112268;1200;94426;-70
2021/09/07 01:13:17;;;;;;;0.40;0.30;;;;;;;12.85;61.99;101326.63;112331;1200;93922;-71
2021/09/07 01:15:43;;;;;;;0.40;0.30;;;;;;;12.75;62.08;101325.92;112068;1200;138743;-71
2021/09/07 01:18:10;;;;;;;0.40;0.20;;;;;;;12.70;62.31;101322.30;112227;1199;94825;-71
2021/09/07 01:20:41;;;;;;;0.40;0.30;;;;;;;12.68;62.38;101323.77;112297;1200;136492;-71
2021/09/07 01:23:07;;;;;;;0.40;0.20;;;;;;;12.66;62.49;101319.71;112299;1199;94394;-71
2021/09/07 01:25:34;;;;;;;0.40;0.30;;;;;;;12.65;62.66;101317.76;112101;1199;137485;-71
2021/09/07 01:28:01;;;;;;;0.40;0.20;;;;;;;12.71;62.55;101316.94;112255;1206;94028;-71
2021/09/07 01:30:29;;;;;;;0.40;0.20;;;;;;;12.74;62.35;101312.59;112344;1201;93909;-71
2021/09/07 01:32:56;;;;;;;0.40;0.20;;;;;;;12.69;62.48;101312.88;112112;1200;137140;-70
2021/09/07 01:35:23;;;;;;;0.40;0.30;;;;;;;12.66;62.72;101310.44;112257;1206;93880;-71
2021/09/07 01:37:49;;;;;;;0.40;0.20;;;;;;;12.64;62.89;101303.90;112105;1199;138978;-71
2021/09/07 01:40:16;;;;;;;0.40;0.30;;;;;;;12.63;62.75;101306.23;112251;1199;93907;-70
2021/09/07 01:42:43;;;;;;;0.40;0.20;;;;;;;12.66;62.63;101305.64;112336;1200;94438;-71
2021/09/07 01:45:10;;;;;;;0.40;0.30;;;;;;;12.65;62.72;101305.84;112258;1199;138425;-71
2021/09/07 01:47:40;;;;;;;0.40;0.30;;;;;;;12.60;62.85;101309.31;112193;1201;108623;-71
2021/09/07 01:50:08;;;;;;;0.40;0.30;;;;;;;12.61;62.87;101311.78;112334;1199;138262;-71
2021/09/07 01:52:35;;;;;;;0.40;0.20;;;;;;;12.65;62.75;101312.77;112242;1198;94315;-70
2021/09/07 01:55:02;;;;;;;0.40;0.20;;;;;;;12.64;62.72;101314.95;112244;1200;93507;-71
2021/09/07 01:57:29;;;;;;;0.40;0.30;;;;;;;12.58;62.89;101310.97;112097;1206;137658;-71
2021/09/07 01:59:56;;;;;;;0.40;0.30;;;;;;;12.52;63.09;101313.02;112270;1199;94434;-71
2021/09/07 02:02:23;;;;;;;0.40;0.30;;;;;;;12.53;63.15;101312.13;112097;1199;139032;-72
2021/09/07 02:04:50;;;;;;;0.40;0.20;;;;;;;12.50;63.22;101311.48;112239;1206;94114;-71
2021/09/07 02:07:16;;;;;;;0.40;0.30;;;;;;;12.48;63.34;101309.20;112172;1203;94034;-71
2021/09/07 02:09:43;;;;;;;0.40;0.30;;;;;;;12.50;63.46;101308.27;112128;1201;137515;-71
2021/09/07 02:12:10;;;;;;;0.40;0.30;;;;;;;12.49;63.48;101302.93;112181;1200;93922;-71
2021/09/07 02:14:36;;;;;;;0.40;0.30;;;;;;;12.49;63.39;101299.91;112105;1206;138006;-71
2021/09/07 02:17:03;;;;;;;0.40;0.20;;;;;;;12.49;63.34;101301.33;112248;1206;93938;-71
2021/09/07 02:19:30;;;;;;;0.40;0.30;;;;;;;12.51;63.50;101297.21;112004;1203;137810;-71
2021/09/07 02:21:57;;;;;;;0.40;0.30;;;;;;;12.51;63.23;101296.67;112317;1199;93897;-71
2021/09/07 02:24:23;;;;;;;0.40;0.20;;;;;;;12.49;63.15;101292.45;112206;1200;108107;-71
2021/09/07 02:26:50;;;;;;;0.40;0.30;;;;;;;12.45;63.27;101296.25;112145;1200;137355;-71
2021/09/07 02:29:16;;;;;;;0.40;0.30;;;;;;;12.37;63.44;101293.38;112200;1200;94035;-71
2021/09/07 02:31:43;;;;;;;0.40;0.30;;;;;;;12.35;63.63;101293.77;112117;1200;137677;-70
2021/09/07 02:34:10;;;;;;;0.40;0.20;;;;;;;12.42;63.69;101294.70;112255;1200;93957;-70
2021/09/07 02:36:37;;;;;;;0.40;0.20;;;;;;;12.47;63.42;101293.91;112236;1200;107928;-71
2021/09/07 02:39:04;;;;;;;0.40;0.30;;;;;;;12.46;63.42;101293.36;112160;1206;137386;-70
2021/09/07 02:41:31;;;;;;;0.40;0.30;;;;;;;12.46;63.52;101285.20;112232;1200;94135;-70
2021/09/07 02:43:57;;;;;;;0.40;0.20;;;;;;;12.53;63.43;101286.14;112123;1206;138021;-71
2021/09/07 02:46:25;;;;;;;0.40;0.20;;;;;;;12.55;63.26;101288.92;112207;1201;93993;-71
2021/09/07 02:48:52;;;;;;;0.40;0.20;;;;;;;12.52;63.20;101292.20;112266;1203;93976;-70
2021/09/07 02:51:19;;;;;;;0.40;0.20;;;;;;;12.39;63.34;101288.52;112156;1200;139899;-71
2021/09/07 02:53:45;;;;;;;0.40;0.30;;;;;;;12.36;63.53;101289.83;112246;1199;93981;-71
2021/09/07 02:56:13;;;;;;;0.40;0.30;;;;;;;12.41;63.75;101288.50;112228;1206;138063;-70
2021/09/07 02:58:40;;;;;;;0.40;0.30;;;;;;;12.41;63.57;101285.64;112325;1201;108076;-70
2021/09/07 03:01:07;;;;;;;0.40;0.30;;;;;;;12.39;63.57;101282.83;112263;1199;94437;-70
2021/09/07 03:03:34;;;;;;;0.40;0.20;;;;;;;12.42;63.78;101283.84;112170;1200;137469;-71
2021/09/07 03:06:01;;;;;;;0.40;0.30;;;;;;;12.41;63.64;101282.09;112250;1201;94023;-70
2021/09/07 03:08:28;;;;;;;0.40;0.20;;;;;;;12.50;63.49;101282.98;112146;1206;137502;-70
2021/09/07 03:10:56;;;;;;;0.40;0.20;;;;;;;12.49;63.31;101277.12;112364;1199;94307;-71
2021/09/07 03:13:23;;;;;;;0.40;0.30;;;;;;;12.42;63.49;101280.30;112362;1201;94237;-71
2021/09/07 03:15:49;;;;;;;0.40;0.30;;;;;;;12.41;63.51;101280.84;112313;1201;137250;-71
2021/09/07 03:18:16;;;;;;;0.40;0.20;;;;;;;12.42;63.63;101275.48;112165;1200;95505;-71
2021/09/07 03:20:43;;;;;;;0.40;0.20;;;;;;;12.36;63.40;101274.15;112168;1206;137484;-71
2021/09/07 03:23:10;;;;;;;0.40;0.30;;;;;;;12.36;63.54;101272.02;112212;1202;94415;-71
2021/09/07 03:25:37;;;;;;;0.40;0.30;;;;;;;12.37;63.72;101271.47;112117;1201;137662;-71
2021/09/07 03:28:03;;;;;;;0.40;0.30;;;;;;;12.34;63.52;101271.19;112154;1206;94336;-70
2021/09/07 03:30:30;;;;;;;0.40;0.30;;;;;;;12.39;63.62;101269.66;112192;1201;94022;-71
2021/09/07 03:32:57;;;;;;;0.40;0.20;;;;;;;12.46;63.33;101267.55;112049;1206;137155;-71
2021/09/07 03:35:24;;;;;;;0.40;0.30;;;;;;;12.41;63.20;101271.23;112195;1200;93921;-70
2021/09/07 03:37:50;;;;;;;0.40;0.30;;;;;;;12.47;63.46;101270.75;112265;1200;138271;-71
2021/09/07 03:40:17;;;;;;;0.40;0.30;;;;;;;12.52;63.21;101267.27;112194;1200;108868;-70
2021/09/07 03:42:44;;;;;;;0.40;0.30;;;;;;;12.50;63.18;101270.13;112200;1206;94112;-70
2021/09/07 03:45:12;;;;;;;0.40;0.30;;;;;;;12.48;63.27;101272.50;112188;1200;137514;-70
2021/09/07 03:47:40;;;;;;;0.40;0.30;;;;;;;12.46;63.22;101276.28;112294;1201;93981;-71
2021/09/07 03:50:08;;;;;;;0.40;0.30;;;;;;;12.44;63.24;101276.50;112170;1201;138734;-71
2021/09/07 03:52:35;;;;;;;0.40;0.30;;;;;;;12.45;63.12;101275.41;112328;1206;108618;-71
2021/09/07 03:55:02;;;;;;;0.40;0.30;;;;;;;12.49;63.21;101281.23;112235;1200;93882;-71
2021/09/07 03:57:29;;;;;;;0.40;0.30;;;;;;;12.38;63.38;101281.05;112208;1198;137536;-71
2021/09/07 03:59:56;;;;;;;0.40;0.30;;;;;;;12.35;63.48;101275.97;112166;1200;94408;-71
2021/09/07 04:02:24;;;;;;;0.40;0.30;;;;;;;12.29;63.48;101271.26;112157;1200;138189;-70
2021/09/07 04:04:51;;;;;;;0.40;0.30;;;;;;;12.28;63.54;101271.83;112207;1202;94057;-71
2021/09/07 04:07:18;;;;;;;0.40;0.30;;;;;;;12.16;63.77;101269.20;112249;1200;93978;-71
2021/09/07 04:09:45;;;;;;;0.40;0.30;;;;;;;12.14;63.99;101269.95;112106;1206;138152;-71
2021/09/07 04:12:12;;;;;;;0.40;0.20;;;;;;;12.31;63.77;101270.34;112282;1200;94044;-71
2021/09/07 04:14:38;;;;;;;0.40;0.20;;;;;;;12.37;63.51;101270.23;112161;1200;137622;-71
2021/09/07 04:17:06;;;;;;;0.40;0.20;;;;;;;12.34;63.47;101271.35;112295;1203;94427;-71
2021/09/07 04:19:33;;;;;;;0.40;0.20;;;;;;;12.34;63.43;101273.86;112130;1200;137695;-71
2021/09/07 04:22:00;;;;;;;0.40;0.30;;;;;;;12.26;63.45;101271.51;112299;1206;94009;-71
2021/09/07 04:24:26;;;;;;;0.40;0.30;;;;;;;12.23;63.57;101272.81;112295;1198;93934;-71
2021/09/07 04:26:53;;;;;;;0.40;0.30;;;;;;;12.16;63.57;101273.66;112164;1200;136927;-71
2021/09/07 04:29:21;;;;;;;0.40;0.30;;;;;;;12.05;63.97;101273.14;112244;1198;95001;-71
2021/09/07 04:31:48;;;;;;;0.40;0.30;;;;;;;12.03;64.31;101275.67;112222;1200;137889;-71
2021/09/07 04:34:14;;;;;;;0.40;0.30;;;;;;;12.03;64.33;101273.70;112263;1198;94903;-71
2021/09/07 04:36:41;;;;;;;0.40;0.30;;;;;;;12.11;64.21;101276.05;112379;1203;94838;-71
2021/09/07 04:39:08;;;;;;;0.40;0.30;;;;;;;12.12;64.23;101276.04;112163;1199;137337;-71
2021/09/07 04:41:34;;;;;;;0.40;0.30;;;;;;;12.16;64.20;101277.38;112255;1206;94857;-71
2021/09/07 04:44:01;;;;;;;0.40;0.30;;;;;;;12.18;64.02;101281.45;112149;1198;138361;-71
2021/09/07 04:46:28;;;;;;;0.40;0.20;;;;;;;12.14;63.99;101284.73;112216;1200;94997;-71
2021/09/07 04:48:54;;;;;;;0.40;0.30;;;;;;;12.07;64.13;101287.53;112354;1206;94838;-71
2021/09/07 04:51:22;;;;;;;0.40;0.30;;;;;;;12.01;64.42;101286.95;112176;1206;138183;-71
2021/09/07 04:53:49;;;;;;;0.40;0.30;;;;;;;11.99;64.49;101291.23;112295;1200;95341;-71
2021/09/07 04:56:16;;;;;;;0.40;0.30;;;;;;;12.01;64.54;101290.31;112309;1199;138560;-71
2021/09/07 04:58:42;;;;;;;0.40;0.30;;;;;;;12.02;64.44;101288.14;112259;1200;94904;-71
2021/09/07 05:01:09;;;;;;;0.40;0.30;;;;;;;12.01;64.56;101287.27;112203;1200;95633;-71
2021/09/07 05:03:37;;;;;;;0.40;0.30;;;;;;;12.13;64.64;101283.86;112142;1200;138233;-70
2021/09/07 05:06:04;;;;;;;0.40;0.30;;;;;;;12.29;64.46;101287.84;112401;1199;94921;-70
2021/09/07 05:08:31;;;;;;;0.40;0.30;;;;;;;12.34;63.95;101287.39;112117;1199;138302;-71
2021/09/07 05:10:57;;;;;;;0.40;0.30;;;;;;;12.34;63.77;101288.45;112203;1198;94833;-71
2021/09/07 05:13:25;;;;;;;0.40;0.30;;;;;;;12.42;63.86;101292.04;112334;1201;94827;-71
2021/09/07 05:15:51;;;;;;;0.40;0.30;;;;;;;12.46;63.59;101296.41;112117;1206;137908;-71
2021/09/07 05:18:18;;;;;;;0.40;0.20;;;;;;;12.47;63.45;101297.28;112263;1204;94833;-71
2021/09/07 05:20:45;;;;;;;0.40;0.20;;;;;;;12.40;63.16;101297.23;112013;1200;138290;-71
2021/09/07 05:23:11;;;;;;;0.40;0.30;;;;;;;12.35;63.43;101297.33;112220;1206;95006;-72
2021/09/07 05:25:38;;;;;;;0.40;0.30;;;;;;;12.34;63.43;101299.48;112098;1200;138900;-71
2021/09/07 05:28:04;;;;;;;0.40;0.30;;;;;;;12.40;63.46;101300.64;112251;1206;94823;-71
2021/09/07 05:30:31;;;;;;;0.40;0.20;;;;;;;12.37;63.14;101294.27;112226;1198;94924;-70
2021/09/07 05:32:58;;;;;;;0.40;0.20;;;;;;;12.39;63.55;101291.73;112156;1198;137343;-70
2021/09/07 05:35:24;;;;;;;0.40;0.20;;;;;;;12.42;63.38;101296.32;112217;1198;94834;-70
2021/09/07 05:37:51;;;;;;;0.40;0.20;;;;;;;12.55;63.32;101299.79;112111;1198;139504;-70
2021/09/07 05:40:17;;;;;;;0.40;0.30;;;;;;;12.66;63.07;101303.14;112207;1199;94844;-70
2021/09/07 05:42:45;;;;;;;0.40;0.30;;;;;;;12.69;63.03;101306.30;112228;1203;95374;-70
2021/09/07 05:45:13;;;;;;;0.40;0.30;;;;;;;12.70;63.04;101305.20;112097;1206;137357;-71
2021/09/07 05:47:41;;;;;;;0.40;0.30;;;;;;;12.71;62.78;101309.45;112026;1201;94977;-71
2021/09/07 05:50:08;;;;;;;0.40;0.20;;;;;;;12.75;62.69;101308.30;111997;1206;139407;-70
2021/09/07 05:52:36;;;;;;;0.40;0.20;;;;;;;12.79;62.76;101311.95;112168;1206;108440;-69
2021/09/07 05:55:03;;;;;;;0.40;0.20;;;;;;;12.88;63.10;101310.70;112232;1199;95120;-70
2021/09/07 05:57:30;;;;;;;0.40;0.30;;;;;;;12.90;62.74;101310.48;112127;1199;137778;-70
2021/09/07 05:59:57;;;;;;;0.40;0.20;;;;;;;13.04;62.72;101314.30;112250;1206;95457;-71
2021/09/07 06:02:23;;;;;;;0.40;0.30;;;;;;;13.15;62.36;101312.63;112026;1200;137716;-71
2021/09/07 06:04:51;;;;;;;0.40;0.20;;;;;;;13.22;62.12;101314.23;112198;1206;94836;-71
2021/09/07 06:07:18;;;;;;;0.40;0.20;;;;;;;13.32;62.10;101319.91;112314;1206;94824;-71
2021/09/07 06:09:44;;;;;;;0.40;0.20;;;;;;;13.48;62.17;101324.55;112205;1198;137735;-71
2021/09/07 06:12:11;;;;;;;0.40;0.20;;;;;;;13.66;61.50;101323.24;112300;1199;94941;-71
2021/09/07 06:14:38;;;;;;;0.40;0.20;;;;;;;13.86;61.38;101319.89;112179;1207;137702;-71
2021/09/07 06:17:07;;;;;;;0.40;0.20;;;;;;;14.04;61.51;101322.11;112139;1198;94894;-72
2021/09/07 06:19:34;;;;;;;0.40;0.20;;;;;;;14.06;60.34;101323.67;112096;1198;137620;-71
2021/09/07 06:22:01;;;;;;;0.40;0.20;;;;;;;14.00;60.58;101321.31;112155;1198;95003;-71
2021/09/07 06:24:28;;;;;;;0.40;0.20;;;;;;;14.10;60.14;101319.98;112159;1199;94805;-72
2021/09/07 06:26:54;;;;;;;0.40;0.20;;;;;;;14.12;59.66;101315.67;111977;1198;137634;-71
2021/09/07 06:29:21;;;;;;;0.40;0.20;;;;;;;14.14;60.01;101315.60;112204;1203;94834;-71
2021/09/07 06:31:48;;;;;;;0.40;0.20;;;;;;;14.18;60.30;101314.05;112154;1206;138023;-71
2021/09/07 06:34:24;;;;;;;0.40;0.20;;;;;;;14.20;59.66;101318.29;112258;1207;95047;-71
2021/09/07 06:36:54;;;;;;;0.40;0.20;;;;;;;14.23;60.38;101315.36;112287;1203;108372;-72
2021/09/07 06:39:22;;;;;;;0.40;0.20;;;;;;;14.41;60.35;101317.21;112088;1204;138752;-70
2021/09/07 06:41:48;;;;;;;0.40;0.20;;;;;;;14.55;60.67;101315.76;112397;1199;94918;-71
2021/09/07 06:44:15;;;;;;;0.40;0.20;;;;;;;14.68;60.04;101322.02;112170;1201;137473;-71
2021/09/07 06:46:57;;;;;;;0.40;0.20;;;;;;;14.83;60.62;101317.84;111455;1211;634296;-71
2021/09/07 06:49:24;;;;;;;0.40;0.20;;;;;;;14.87;59.47;101318.42;112243;1200;93966;-71
2021/09/07 06:51:55;;;;;;;0.40;0.20;;;;;;;14.90;59.90;101314.58;112135;1201;136465;-70
2021/09/07 06:54:22;;;;;;;0.40;0.20;;;;;;;15.02;59.90;101317.27;112237;1201;93894;-70
2021/09/07 06:56:48;;;;;;;0.40;0.20;;;;;;;15.10;59.59;101319.02;112092;1201;136295;-71
2021/09/07 06:59:15;;;;;;;0.40;0.20;;;;;;;15.20;59.94;101316.90;112246;1207;94181;-71
2021/09/07 07:01:42;;;;;;;0.40;0.20;;;;;;;15.25;59.78;101320.52;112305;1198;136582;-71
2021/09/07 07:04:09;;;;;;;0.40;0.20;;;;;;;15.30;59.64;101316.96;112313;1206;93857;-70
2021/09/07 07:06:35;;;;;;;0.40;0.20;;;;;;;15.40;58.92;101317.38;112483;1206;93980;-70
2021/09/07 07:09:02;;;;;;;0.40;0.20;;;;;;;15.50;59.04;101315.45;112333;1200;137161;-71
2021/09/07 07:11:29;;;;;;;0.40;0.20;;;;;;;15.60;58.45;101318.52;112513;1201;93944;-71
2021/09/07 07:13:55;;;;;;;0.40;0.20;;;;;;;15.63;58.78;101317.52;112259;1198;136980;-71
2021/09/07 07:16:22;;;;;;;0.40;0.10;;;;;;;15.66;56.99;101317.95;112406;1201;93878;-71
2021/09/07 07:18:49;;;;;;;0.40;0.20;;;;;;;15.73;57.08;101316.67;112277;1202;93903;-71
2021/09/07 07:21:16;;;;;;;0.40;0.20;;;;;;;15.81;57.46;101315.52;112413;1197;137146;-71
2021/09/07 07:23:42;;;;;;;0.40;0.20;;;;;;;15.91;57.94;101316.11;112407;1200;94075;-71
2021/09/07 07:26:09;;;;;;;0.40;0.10;;;;;;;16.06;56.26;101315.93;112453;1204;137187;-71
2021/09/07 07:28:36;;;;;;;0.40;0.10;;;;;;;16.12;55.11;101315.92;112614;1199;93906;-71
2021/09/07 07:31:03;;;;;;;0.40;0.10;;;;;;;16.18;55.61;101317.34;112689;1203;93855;-71
2021/09/07 07:33:29;;;;;;;0.40;0.10;;;;;;;16.29;56.11;101316.58;112460;1198;136964;-70
2021/09/07 07:35:56;;;;;;;0.40;0.20;;;;;;;16.47;55.65;101313.98;112585;1204;93902;-70
2021/09/07 07:38:22;;;;;;;0.40;0.10;;;;;;;16.57;53.82;101315.58;112434;1198;136791;-70
2021/09/07 07:40:49;;;;;;;0.40;0.10;;;;;;;16.62;54.31;101318.45;112562;1198;93991;-71
2021/09/07 07:43:17;;;;;;;0.40;0.20;;;;;;;16.73;54.85;101319.45;112632;1197;93969;-71
2021/09/07 07:45:43;;;;;;;0.40;0.20;;;;;;;16.79;53.10;101322.64;112446;1203;137092;-71
2021/09/07 07:48:10;;;;;;;0.40;0.10;;;;;;;16.80;53.75;101325.48;112542;1197;94316;-71
2021/09/07 07:50:37;;;;;;;0.40;0.20;;;;;;;16.88;52.80;101326.27;112420;1197;136594;-70
2021/09/07 07:53:03;;;;;;;0.40;0.10;;;;;;;16.97;52.75;101323.64;112533;1197;93881;-71
2021/09/07 07:55:30;;;;;;;0.40;0.20;;;;;;;17.05;52.59;101329.61;112592;1199;94511;-71
2021/09/07 07:58:00;;;;;;;0.40;0.20;;;;;;;17.18;53.27;101329.47;112473;1203;136496;-71
2021/09/07 08:00:27;;;;;;;0.40;0.10;;;;;;;17.29;52.23;101329.39;112655;1198;137505;-72
2021/09/07 08:02:54;;;;;;;0.40;0.20;;;;;;;17.39;53.10;101337.05;112735;1203;93921;-72
2021/09/07 08:05:35;;;;;;;0.40;0.10;;;;;;;17.54;52.37;101341.85;112554;1204;136776;-71
2021/09/07 08:08:02;;;;;;;0.40;0.10;;;;;;;17.63;51.28;101342.04;112645;1204;108836;-72
2021/09/07 08:10:29;;;;;;;0.40;0.20;;;;;;;17.71;51.78;101340.09;112666;1204;96278;-72
2021/09/07 08:12:55;;;;;;;0.40;0.10;;;;;;;17.80;51.44;101341.90;112652;1204;136602;-69
2021/09/07 08:15:22;;;;;;;0.40;0.20;;;;;;;17.90;51.62;101341.48;112815;1195;93889;-70
2021/09/07 08:17:50;;;;;;;0.40;0.20;;;;;;;18.01;51.23;101340.34;112835;1200;136758;-71
2021/09/07 08:20:16;;;;;;;0.40;0.10;;;;;;;18.15;51.27;101344.06;112665;1204;93936;-71
2021/09/07 08:22:43;;;;;;;0.40;0.20;;;;;;;18.22;50.91;101345.73;112756;1197;94038;-71
2021/09/07 08:25:11;;;;;;;0.40;0.10;;;;;;;18.35;50.47;101344.62;112701;1204;138830;-70
2021/09/07 08:27:38;;;;;;;0.40;0.10;;;;;;;18.52;50.25;101343.89;112925;1199;93876;-70
2021/09/07 08:30:06;;;;;;;0.40;0.10;;;;;;;18.63;48.74;101344.48;112739;1199;135949;-72
2021/09/07 08:32:38;;;;;;;0.40;0.10;;;;;;;18.68;47.64;101344.05;112755;1197;106293;-72
2021/09/07 08:35:05;;;;;;;0.40;0.20;;;;;;;18.81;47.75;101344.20;112705;1196;93936;-72
2021/09/07 08:37:32;;;;;;;0.40;0.10;;;;;;;18.96;48.21;101343.20;112780;1202;136926;-72
2021/09/07 08:39:59;;;;;;;0.40;0.10;;;;;;;19.13;48.30;101345.25;112897;1202;94528;-71
2021/09/07 08:42:28;;;;;;;0.40;0.10;;;;;;;19.28;47.23;101343.34;112683;1195;136640;-71
2021/09/07 08:44:55;;;;;;;0.40;0.10;;;;;;;19.29;46.68;101341.30;112717;1200;93889;-72
2021/09/07 08:47:25;;;;;;;0.40;0.10;;;;;;;19.30;46.40;101341.77;112491;1197;138524;-71
2021/09/07 08:49:52;;;;;;;0.40;0.10;;;;;;;19.33;45.01;101339.11;112612;1201;108876;-70
2021/09/07 08:52:22;;;;;;;0.40;0.10;;;;;;;19.29;44.43;101342.16;112666;1198;94016;-71
2021/09/07 08:54:49;;;;;;;0.40;0.10;;;;;;;19.28;43.88;101342.02;112607;1204;136709;-72
2021/09/07 08:57:16;;;;;;;0.40;0.10;;;;;;;19.33;44.93;101340.02;112713;1204;94444;-71
2021/09/07 09:00:04;;;;;;;0.40;0.10;;;;;;;19.38;44.67;101341.58;112534;1197;137686;-70
2021/09/07 09:02:38;;;;;;;0.40;0.10;;;;;;;19.46;42.98;101339.96;112599;1203;107305;-71
2021/09/07 09:05:07;;;;;;;0.40;0.10;;;;;;;19.66;41.83;101338.42;112483;1204;93861;-71
2021/09/07 09:07:34;;;;;;;0.40;0.20;;;;;;;19.99;41.35;101334.13;112634;1204;136580;-70
2021/09/07 09:10:01;;;;;;;0.40;0.10;;;;;;;20.25;41.36;101333.50;112667;1200;94388;-70
2021/09/07 09:12:38;;;;;;;0.40;0.10;;;;;;;21.10;38.56;101328.39;112590;1204;136611;-71
2021/09/07 09:15:22;;;;;;;0.40;0.10;;;;;;;23.02;37.33;101322.48;112682;1199;93960;-70
2021/09/07 09:17:52;;;;;;;0.40;0.10;;;;;;;24.66;32.85;101315.02;112632;1204;136720;-71
2021/09/07 09:20:19;;;;;;;0.40;0.00;;;;;;;25.87;31.27;101315.09;112680;1204;108525;-70
2021/09/07 09:22:53;;;;;;;0.40;0.10;;;;;;;26.76;29.67;101313.61;112654;1204;93917;-71
2021/09/07 09:25:20;;;;;;;0.40;0.00;;;;;;;27.84;27.38;101317.11;112649;1204;136655;-72
2021/09/07 09:27:47;;;;;;;0.40;0.00;;;;;;;28.32;26.76;101320.64;112692;1204;93912;-72
2021/09/07 09:30:15;;;;;;;0.40;0.00;;;;;;;28.33;27.86;101318.17;112564;1197;140461;-72
2021/09/07 09:32:49;;;;;;;0.40;0.00;;;;;;;28.32;26.95;101318.64;112770;1198;106288;-71
2021/09/07 09:35:16;;;;;;;0.40;0.00;;;;;;;28.04;26.48;101320.10;112725;1203;94053;-71
2021/09/07 09:38:12;;;;;;;0.40;0.00;;;;;;;27.86;27.07;101323.08;112642;1203;136991;-71
2021/09/07 09:40:38;;;;;;;0.40;0.00;;;;;;;28.15;27.48;101313.66;112559;1203;108981;-71
2021/09/07 09:43:23;;;;;;;0.40;0.00;;;;;;;28.86;26.10;101315.04;112671;1200;136906;-72
2021/09/07 09:45:50;;;;;;;0.40;0.00;;;;;;;29.81;25.43;101311.37;112701;1203;93974;-72
2021/09/07 09:48:21;;;;;;;0.40;0.00;;;;;;;30.75;25.19;101310.10;112689;1198;136806;-72
2021/09/07 09:50:50;;;;;;;0.40;0.00;;;;;;;31.50;24.30;101304.20;112709;1201;99910;-72
2021/09/07 09:53:19;;;;;;;0.40;0.00;;;;;;;31.93;22.89;101306.32;112733;1200;98225;-71
2021/09/07 09:55:47;;;;;;;0.40;0.00;;;;;;;32.22;21.84;101303.89;112717;1195;137336;-72
2021/09/07 09:58:15;;;;;;;0.40;0.00;;;;;;;32.64;22.56;101304.83;112737;1204;93873;-72
2021/09/07 10:00:45;;;;;;;0.40;0.00;;;;;;;33.14;21.76;101307.13;112653;1204;136676;-72
2021/09/07 10:03:13;;;;;;;0.40;0.00;;;;;;;33.77;21.27;101300.06;112769;1195;97145;-72
2021/09/07 10:05:41;;;;;;;0.40;0.00;;;;;;;34.28;20.56;101296.77;112670;1204;136908;-72
2021/09/07 10:08:11;;;;;;;0.40;0.00;;;;;;;34.67;19.61;101292.94;112710;1200;94074;-70
2021/09/07 10:10:42;;;;;;;0.40;0.00;;;;;;;34.82;19.01;101294.08;112821;1203;99822;-72
2021/09/07 10:13:09;;;;;;;0.40;0.00;;;;;;;35.18;18.42;101296.29;112545;1200;137207;-72
2021/09/07 10:15:45;;;;;;;0.40;0.00;;;;;;;35.66;18.70;101295.91;112669;1195;93963;-73
2021/09/07 10:23:03;;;;;;;0.40;0.00;;;;;;;36.56;18.00;101294.73;112700;1204;100067;-71
2021/09/07 10:26:39;;;;;;;0.40;0.00;;;;;;;37.32;17.21;101294.73;112587;1200;94372;-72
2021/09/07 10:29:07;;;;;;;0.40;0.00;;;;;;;37.36;17.04;101295.69;112672;1205;94328;-74
2021/09/07 10:31:51;;;;;;;0.40;0.00;;;;;;;37.63;17.01;101297.11;112588;1195;136758;-72
2021/09/07 10:34:20;;;;;;;0.40;0.00;;;;;;;37.84;16.67;101294.92;112743;1204;97050;-72
2021/09/07 10:37:04;;;;;;;0.40;0.00;;;;;;;37.80;16.01;101293.95;112641;1200;138718;-72
2021/09/07 10:39:35;;;;;;;0.40;0.00;;;;;;;37.63;16.04;101295.39;112741;1200;95131;-72
2021/09/07 10:42:04;;;;;;;0.40;0.00;;;;;;;37.74;16.71;101295.54;112596;1203;136884;-73
2021/09/07 10:44:40;;;;;;;0.40;0.00;;;;;;;37.78;15.39;101296.61;112766;1196;98272;-73
2021/09/07 10:47:07;;;;;;;0.40;0.00;;;;;;;37.52;16.05;101295.42;112600;1197;94436;-73
2021/09/07 10:49:37;;;;;;;0.40;0.00;;;;;;;36.20;17.09;101295.14;112640;1198;137364;-73
2021/09/07 10:52:13;;;;;;;0.40;0.00;;;;;;;34.65;19.02;101291.39;112708;1198;99786;-72
2021/09/07 10:54:41;;;;;;;0.40;0.00;;;;;;;33.21;19.98;101288.61;112598;1196;137045;-71
2021/09/07 10:57:08;;;;;;;0.40;0.00;;;;;;;32.00;21.53;101283.75;112710;1203;96216;-72
2021/09/07 10:59:50;;;;;;;0.40;0.00;;;;;;;31.06;22.94;101276.23;112483;1199;137567;-73
2021/09/07 11:02:41;;;;;;;0.40;0.00;;;;;;;29.95;23.44;101275.41;112817;1204;99990;-71
2021/09/07 11:05:12;;;;;;;0.40;0.00;;;;;;;28.88;25.79;101279.24;112667;1196;108188;-72
2021/09/07 11:07:46;;;;;;;0.40;0.00;;;;;;;28.03;26.54;101276.23;112630;1197;137611;-70
2021/09/07 11:10:25;;;;;;;0.40;0.00;;;;;;;27.38;27.05;101282.25;112798;1196;94502;-70
2021/09/07 11:13:01;;;;;;;0.40;0.00;;;;;;;26.42;27.91;101280.32;112632;1196;136952;-71
2021/09/07 11:15:31;;;;;;;0.40;0.00;;;;;;;25.71;29.73;101276.08;112744;1195;107184;-72
2021/09/07 11:18:07;;;;;;;0.40;0.00;;;;;;;25.33;30.17;101278.93;112667;1200;137234;-73
2021/09/07 11:20:36;;;;;;;0.40;0.00;;;;;;;24.94;30.68;101277.45;112809;1204;93861;-72
2021/09/07 11:23:12;;;;;;;0.40;0.00;;;;;;;24.57;31.40;101279.84;112688;1198;108580;-72
2021/09/07 11:25:41;;;;;;;0.40;0.00;;;;;;;24.17;31.89;101279.20;112632;1198;137088;-70